TimeCDT,TemperatureF,Dew PointF,Humidity,Sea Level PressureIn,VisibilityMPH,Wind Direction,Wind SpeedMPH,Gust SpeedMPH,PrecipitationIn,Events,Conditions,WindDirDegrees,DateUTC
12:52 AM,37.9,28.9,70,30.22,7.0,ESE,8.1,-,N/A,,Clear,120,2013-03-30 05:52:00
1:52 AM,36.0,28.9,76,30.20,8.0,ESE,6.9,-,N/A,,Clear,120,2013-03-30 06:52:00
2:52 AM,37.0,28.9,73,30.18,7.0,ESE,6.9,-,N/A,,Clear,120,2013-03-30 07:52:00
3:52 AM,36.0,28.9,76,30.17,7.0,ESE,8.1,-,N/A,,Clear,120,2013-03-30 08:52:00
4:52 AM,36.0,28.9,76,30.16,6.0,SE,8.1,-,N/A,,Haze,130,2013-03-30 09:52:00
5:52 AM,37.0,30.0,76,30.13,6.0,SE,9.2,-,N/A,,Haze,130,2013-03-30 10:52:00
6:52 AM,37.9,30.9,76,30.12,5.0,SSE,10.4,-,N/A,,Haze,160,2013-03-30 11:52:00
7:52 AM,39.9,33.1,77,30.11,5.0,SSE,11.5,-,N/A,,Haze,160,2013-03-30 12:52:00
8:52 AM,43.0,35.1,74,30.10,6.0,South,9.2,-,N/A,,Haze,170,2013-03-30 13:52:00
9:52 AM,46.9,37.9,71,30.08,5.0,SSE,13.8,-,N/A,,Haze,160,2013-03-30 14:52:00
10:52 AM,48.9,41.0,74,30.06,5.0,South,15.0,-,N/A,,Haze,180,2013-03-30 15:52:00
11:52 AM,52.0,41.0,66,30.04,5.0,South,18.4,26.5,N/A,,Haze,190,2013-03-30 16:52:00
12:52 PM,53.1,41.0,64,30.01,6.0,South,16.1,-,N/A,,Haze,180,2013-03-30 17:52:00
1:52 PM,54.0,41.0,62,30.01,7.0,SSW,17.3,24.2,N/A,,Mostly Cloudy,210,2013-03-30 18:52:00
2:52 PM,54.0,39.0,57,29.98,7.0,SSW,16.1,-,N/A,,Mostly Cloudy,210,2013-03-30 19:52:00
3:52 PM,53.1,37.0,55,29.95,8.0,SSW,12.7,-,N/A,,Overcast,200,2013-03-30 20:52:00
4:52 PM,52.0,39.0,61,29.92,7.0,South,13.8,23.0,N/A,,Overcast,190,2013-03-30 21:52:00
5:52 PM,52.0,39.9,63,29.91,6.0,SSW,10.4,-,N/A,,Haze,200,2013-03-30 22:52:00
6:52 PM,50.0,37.0,61,29.90,8.0,SSW,10.4,18.4,N/A,,Overcast,210,2013-03-30 23:52:00
7:44 PM,48.2,37.4,66,29.88,9.0,SW,12.7,-,N/A,,Overcast,220,2013-03-31 00:44:00
7:52 PM,48.9,37.9,66,29.90,9.0,SW,15.0,-,N/A,,Overcast,220,2013-03-31 00:52:00
8:52 PM,48.0,42.1,80,29.90,6.0,SW,11.5,-,N/A,,Haze,220,2013-03-31 01:52:00
9:06 PM,46.4,42.8,87,29.89,6.0,SW,10.4,-,N/A,,Haze,220,2013-03-31 02:06:00
9:52 PM,46.9,43.0,86,29.90,5.0,SW,9.2,-,N/A,,Overcast,220,2013-03-31 02:52:00
10:52 PM,46.9,44.1,90,29.89,4.0,WSW,11.5,-,N/A,,Overcast,240,2013-03-31 03:52:00
11:52 PM,46.0,44.1,93,29.88,4.0,WSW,10.4,-,N/A,,Overcast,250,2013-03-31 04:52:00